KDAN/DAN METAR and TAF weather

Enter ICAO airport designator
Station Type Date Time Source
KDAN METAR 2022/06/25 22:53 UTC NOAA

KDAN 252253Z AUTO VRB05KT 10SM CLR 31/17 A3009 RMK AO2 SLP177 T03060167


Station Type Date Time Source
KDAN Decoded METAR 2022/06/25 22:53 UTC NOAA

DANVILLE REGIONAL AIRPORT, VA, United States (KDAN) 36-34N 079-20W 175M
Jun 25, 2022 - 06:53 PM EDT / 2022.06.25 2253 UTC
Wind: Variable at 6 MPH (5 KT):0
Visibility: 10 mile(s):0
Sky conditions: clear
Temperature: 87.1 F (30.6 C)
Dew Point: 62.1 F (16.7 C)
Relative Humidity: 43%
Pressure (altimeter): 30.09 in. Hg (1018 hPa)
ob: KDAN 252253Z AUTO VRB05KT 10SM CLR 31/17 A3009 RMK AO2 SLP177 T03060167
cycle: 23

Station Type Date Time Source
KDAN TAF 2022/06/25 18:22 UTC NOAA

TAF KDAN 251720Z 2518/2618 18005KT P6SM SCT060
FM261400 21005KT P6SM SCT090

Example: see airport list